Drake, Missouri
Current Conditions -  °F | °C
As of 6:53 PM on Monday 22 Dec 2014 (Local Time) from KVIH Reporting Station
Light Rain Light Rain  
Wind Chill: 43°   Ceiling: 500
Heat Index: 48°   Visibility: 7mi
Dew Point: 46°   Wind: 12mph
Humidity: 93%   Direction: 190°S
Pressure: 29.49"   Gusts: NA
Location:  38.3708°N, 91.4729°W
Report Text: KVIH 230053Z AUTO 19010KT 7SM -RA OVC005 09/08 A2949 RMK AO2 RAB00 SLP988 P0004 T00890078 $
Loading
Personal Weather Stations






























Interactive Weather Map New forecast layout! Learn more

10-Day Weather Forecast

Advertisements
Track Severe Weather on mobile